sensor_id;sensor_type;location;lat;lon;timestamp;P1;durP1;ratioP1;P2;durP2;ratioP2
2748;SDS011;1382;52.142;11.618;2022-11-24T00:01:23;12.13;;;5.50;;
2748;SDS011;1382;52.142;11.618;2022-11-24T00:03:51;14.30;;;6.50;;
2748;SDS011;1382;52.142;11.618;2022-11-24T00:06:20;10.40;;;5.23;;
2748;SDS011;1382;52.142;11.618;2022-11-24T00:08:48;10.93;;;5.30;;
2748;SDS011;1382;52.142;11.618;2022-11-24T00:11:17;9.50;;;5.00;;
2748;SDS011;1382;52.142;11.618;2022-11-24T00:13:45;11.00;;;5.27;;
2748;SDS011;1382;52.142;11.618;2022-11-24T00:16:13;12.80;;;5.50;;
2748;SDS011;1382;52.142;11.618;2022-11-24T00:18:41;8.57;;;6.00;;
2748;SDS011;1382;52.142;11.618;2022-11-24T00:21:09;11.37;;;6.10;;
2748;SDS011;1382;52.142;11.618;2022-11-24T00:23:38;6.23;;;5.00;;
2748;SDS011;1382;52.142;11.618;2022-11-24T00:26:06;8.97;;;5.33;;
2748;SDS011;1382;52.142;11.618;2022-11-24T00:28:34;8.33;;;5.90;;
2748;SDS011;1382;52.142;11.618;2022-11-24T00:31:02;9.50;;;5.67;;
2748;SDS011;1382;52.142;11.618;2022-11-24T00:33:30;8.17;;;5.80;;
2748;SDS011;1382;52.142;11.618;2022-11-24T00:35:57;11.33;;;6.80;;
2748;SDS011;1382;52.142;11.618;2022-11-24T00:38:25;8.97;;;5.47;;
2748;SDS011;1382;52.142;11.618;2022-11-24T00:40:53;11.67;;;6.40;;
2748;SDS011;1382;52.142;11.618;2022-11-24T00:43:20;7.10;;;4.73;;
2748;SDS011;1382;52.142;11.618;2022-11-24T00:45:47;10.33;;;5.53;;
2748;SDS011;1382;52.142;11.618;2022-11-24T00:48:14;11.20;;;6.17;;
2748;SDS011;1382;52.142;11.618;2022-11-24T00:50:41;11.10;;;5.13;;
2748;SDS011;1382;52.142;11.618;2022-11-24T00:53:08;11.30;;;6.00;;
2748;SDS011;1382;52.142;11.618;2022-11-24T00:55:34;7.17;;;4.47;;
2748;SDS011;1382;52.142;11.618;2022-11-24T00:58:03;7.60;;;4.57;;
2748;SDS011;1382;52.142;11.618;2022-11-24T01:00:30;7.07;;;5.37;;
2748;SDS011;1382;52.142;11.618;2022-11-24T01:02:57;9.33;;;5.57;;
2748;SDS011;1382;52.142;11.618;2022-11-24T01:05:23;11.73;;;5.80;;
2748;SDS011;1382;52.142;11.618;2022-11-24T01:07:50;9.00;;;5.90;;
2748;SDS011;1382;52.142;11.618;2022-11-24T01:10:17;9.13;;;5.17;;
2748;SDS011;1382;52.142;11.618;2022-11-24T01:12:44;8.63;;;6.30;;
2748;SDS011;1382;52.142;11.618;2022-11-24T01:15:12;11.33;;;5.83;;
2748;SDS011;1382;52.142;11.618;2022-11-24T01:17:39;14.67;;;6.40;;
2748;SDS011;1382;52.142;11.618;2022-11-24T01:20:06;12.40;;;6.70;;
2748;SDS011;1382;52.142;11.618;2022-11-24T01:22:34;8.03;;;6.13;;
2748;SDS011;1382;52.142;11.618;2022-11-24T01:25:01;7.90;;;4.90;;
2748;SDS011;1382;52.142;11.618;2022-11-24T01:27:28;12.67;;;6.57;;
2748;SDS011;1382;52.142;11.618;2022-11-24T01:29:54;13.37;;;5.57;;
2748;SDS011;1382;52.142;11.618;2022-11-24T01:32:22;10.33;;;5.50;;
2748;SDS011;1382;52.142;11.618;2022-11-24T01:34:49;9.60;;;5.40;;
2748;SDS011;1382;52.142;11.618;2022-11-24T01:37:16;8.93;;;5.23;;
2748;SDS011;1382;52.142;11.618;2022-11-24T01:39:43;6.77;;;5.20;;
2748;SDS011;1382;52.142;11.618;2022-11-24T01:42:09;6.80;;;4.20;;
2748;SDS011;1382;52.142;11.618;2022-11-24T01:44:36;10.03;;;5.37;;
2748;SDS011;1382;52.142;11.618;2022-11-24T01:47:04;12.93;;;6.63;;
2748;SDS011;1382;52.142;11.618;2022-11-24T01:49:40;8.80;;;5.50;;
2748;SDS011;1382;52.142;11.618;2022-11-24T01:52:12;11.03;;;5.80;;
2748;SDS011;1382;52.142;11.618;2022-11-24T01:54:45;9.20;;;5.60;;
2748;SDS011;1382;52.142;11.618;2022-11-24T01:57:17;6.53;;;5.57;;
2748;SDS011;1382;52.142;11.618;2022-11-24T01:59:47;12.27;;;6.63;;
2748;SDS011;1382;52.142;11.618;2022-11-24T02:02:18;8.43;;;5.27;;
2748;SDS011;1382;52.142;11.618;2022-11-24T02:04:47;7.60;;;5.03;;
2748;SDS011;1382;52.142;11.618;2022-11-24T02:07:15;8.97;;;5.93;;
2748;SDS011;1382;52.142;11.618;2022-11-24T02:09:44;10.03;;;5.73;;
2748;SDS011;1382;52.142;11.618;2022-11-24T02:12:14;9.93;;;6.07;;
2748;SDS011;1382;52.142;11.618;2022-11-24T02:14:41;8.10;;;6.20;;
2748;SDS011;1382;52.142;11.618;2022-11-24T02:17:09;9.73;;;6.80;;
2748;SDS011;1382;52.142;11.618;2022-11-24T02:19:40;9.30;;;5.83;;
2748;SDS011;1382;52.142;11.618;2022-11-24T02:22:16;8.30;;;4.70;;
2748;SDS011;1382;52.142;11.618;2022-11-24T02:24:49;12.13;;;5.73;;
2748;SDS011;1382;52.142;11.618;2022-11-24T02:27:22;9.77;;;6.10;;
2748;SDS011;1382;52.142;11.618;2022-11-24T02:29:49;9.70;;;6.30;;
2748;SDS011;1382;52.142;11.618;2022-11-24T02:32:16;10.83;;;5.77;;
2748;SDS011;1382;52.142;11.618;2022-11-24T02:34:44;8.77;;;6.00;;
2748;SDS011;1382;52.142;11.618;2022-11-24T02:37:11;10.57;;;6.47;;
2748;SDS011;1382;52.142;11.618;2022-11-24T02:39:38;16.90;;;7.90;;
2748;SDS011;1382;52.142;11.618;2022-11-24T02:42:05;10.40;;;7.00;;
2748;SDS011;1382;52.142;11.618;2022-11-24T02:44:37;10.33;;;5.77;;
2748;SDS011;1382;52.142;11.618;2022-11-24T02:47:08;11.10;;;5.60;;
2748;SDS011;1382;52.142;11.618;2022-11-24T02:49:36;9.10;;;5.90;;
2748;SDS011;1382;52.142;11.618;2022-11-24T02:52:03;8.93;;;5.50;;
2748;SDS011;1382;52.142;11.618;2022-11-24T02:54:30;12.43;;;6.10;;
2748;SDS011;1382;52.142;11.618;2022-11-24T02:56:58;10.10;;;5.63;;
2748;SDS011;1382;52.142;11.618;2022-11-24T02:59:25;7.37;;;4.33;;
2748;SDS011;1382;52.142;11.618;2022-11-24T03:01:53;16.60;;;6.27;;
2748;SDS011;1382;52.142;11.618;2022-11-24T03:04:20;10.10;;;4.60;;
2748;SDS011;1382;52.142;11.618;2022-11-24T03:06:47;9.97;;;5.60;;
2748;SDS011;1382;52.142;11.618;2022-11-24T03:09:14;8.63;;;5.57;;
2748;SDS011;1382;52.142;11.618;2022-11-24T03:11:40;8.33;;;6.10;;
2748;SDS011;1382;52.142;11.618;2022-11-24T03:14:07;13.20;;;6.67;;
2748;SDS011;1382;52.142;11.618;2022-11-24T03:16:34;12.23;;;5.73;;
2748;SDS011;1382;52.142;11.618;2022-11-24T03:19:02;9.73;;;5.83;;
2748;SDS011;1382;52.142;11.618;2022-11-24T03:21:30;8.03;;;5.70;;
2748;SDS011;1382;52.142;11.618;2022-11-24T03:23:57;11.80;;;6.47;;
2748;SDS011;1382;52.142;11.618;2022-11-24T03:26:23;10.43;;;5.80;;
2748;SDS011;1382;52.142;11.618;2022-11-24T03:28:52;9.07;;;6.40;;
2748;SDS011;1382;52.142;11.618;2022-11-24T03:31:19;9.20;;;5.47;;
2748;SDS011;1382;52.142;11.618;2022-11-24T03:33:47;14.93;;;6.30;;
2748;SDS011;1382;52.142;11.618;2022-11-24T03:36:15;13.40;;;7.27;;
2748;SDS011;1382;52.142;11.618;2022-11-24T03:38:42;10.80;;;5.50;;
2748;SDS011;1382;52.142;11.618;2022-11-24T03:41:09;8.53;;;6.03;;
2748;SDS011;1382;52.142;11.618;2022-11-24T03:43:36;9.83;;;5.13;;
2748;SDS011;1382;52.142;11.618;2022-11-24T03:46:09;8.10;;;5.43;;
2748;SDS011;1382;52.142;11.618;2022-11-24T03:48:36;19.33;;;5.90;;
2748;SDS011;1382;52.142;11.618;2022-11-24T03:51:03;10.43;;;6.50;;
2748;SDS011;1382;52.142;11.618;2022-11-24T03:53:32;8.90;;;4.80;;
2748;SDS011;1382;52.142;11.618;2022-11-24T03:55:59;9.23;;;5.97;;
2748;SDS011;1382;52.142;11.618;2022-11-24T03:58:26;10.40;;;5.90;;
2748;SDS011;1382;52.142;11.618;2022-11-24T04:00:53;9.77;;;7.07;;
2748;SDS011;1382;52.142;11.618;2022-11-24T04:03:20;13.33;;;6.27;;
2748;SDS011;1382;52.142;11.618;2022-11-24T04:05:48;11.07;;;6.43;;
2748;SDS011;1382;52.142;11.618;2022-11-24T04:08:15;13.33;;;7.57;;
2748;SDS011;1382;52.142;11.618;2022-11-24T04:10:43;12.33;;;5.37;;
2748;SDS011;1382;52.142;11.618;2022-11-24T04:13:14;9.27;;;6.07;;
2748;SDS011;1382;52.142;11.618;2022-11-24T04:15:42;9.60;;;6.20;;
2748;SDS011;1382;52.142;11.618;2022-11-24T04:18:10;13.40;;;6.07;;
2748;SDS011;1382;52.142;11.618;2022-11-24T04:20:38;11.40;;;7.40;;
2748;SDS011;1382;52.142;11.618;2022-11-24T04:23:05;8.73;;;5.80;;
2748;SDS011;1382;52.142;11.618;2022-11-24T04:25:32;9.60;;;5.87;;
2748;SDS011;1382;52.142;11.618;2022-11-24T04:28:00;7.87;;;5.40;;
2748;SDS011;1382;52.142;11.618;2022-11-24T04:30:27;12.63;;;5.43;;
2748;SDS011;1382;52.142;11.618;2022-11-24T04:32:54;10.80;;;6.67;;
2748;SDS011;1382;52.142;11.618;2022-11-24T04:35:21;10.70;;;6.17;;
2748;SDS011;1382;52.142;11.618;2022-11-24T04:37:48;11.63;;;6.07;;
2748;SDS011;1382;52.142;11.618;2022-11-24T04:40:15;9.30;;;5.97;;
2748;SDS011;1382;52.142;11.618;2022-11-24T04:42:42;6.27;;;5.00;;
2748;SDS011;1382;52.142;11.618;2022-11-24T04:45:10;8.90;;;6.27;;
2748;SDS011;1382;52.142;11.618;2022-11-24T04:47:37;9.43;;;5.90;;
2748;SDS011;1382;52.142;11.618;2022-11-24T04:50:04;8.90;;;5.87;;
2748;SDS011;1382;52.142;11.618;2022-11-24T04:52:32;8.33;;;5.90;;
2748;SDS011;1382;52.142;11.618;2022-11-24T04:54:58;11.97;;;6.60;;
2748;SDS011;1382;52.142;11.618;2022-11-24T04:57:25;10.00;;;6.20;;
2748;SDS011;1382;52.142;11.618;2022-11-24T04:59:54;8.90;;;5.80;;
2748;SDS011;1382;52.142;11.618;2022-11-24T05:02:22;7.43;;;4.80;;
2748;SDS011;1382;52.142;11.618;2022-11-24T05:04:49;10.27;;;6.93;;
2748;SDS011;1382;52.142;11.618;2022-11-24T05:07:17;11.03;;;5.17;;
2748;SDS011;1382;52.142;11.618;2022-11-24T05:09:45;11.30;;;6.93;;
2748;SDS011;1382;52.142;11.618;2022-11-24T05:12:24;10.60;;;6.40;;
2748;SDS011;1382;52.142;11.618;2022-11-24T05:14:52;9.27;;;5.97;;
2748;SDS011;1382;52.142;11.618;2022-11-24T05:17:18;10.93;;;7.40;;
2748;SDS011;1382;52.142;11.618;2022-11-24T05:19:46;9.93;;;5.90;;
2748;SDS011;1382;52.142;11.618;2022-11-24T05:22:13;7.50;;;6.20;;
2748;SDS011;1382;52.142;11.618;2022-11-24T05:24:40;12.77;;;7.37;;
2748;SDS011;1382;52.142;11.618;2022-11-24T05:27:07;9.77;;;6.30;;
2748;SDS011;1382;52.142;11.618;2022-11-24T05:29:33;11.63;;;8.10;;
2748;SDS011;1382;52.142;11.618;2022-11-24T05:32:00;7.70;;;5.20;;
2748;SDS011;1382;52.142;11.618;2022-11-24T05:34:27;11.97;;;6.20;;
2748;SDS011;1382;52.142;11.618;2022-11-24T05:36:55;9.30;;;6.20;;
2748;SDS011;1382;52.142;11.618;2022-11-24T05:39:22;8.87;;;5.53;;
2748;SDS011;1382;52.142;11.618;2022-11-24T05:41:48;17.90;;;8.47;;
2748;SDS011;1382;52.142;11.618;2022-11-24T05:44:15;12.73;;;6.57;;
2748;SDS011;1382;52.142;11.618;2022-11-24T05:46:42;11.20;;;7.10;;
2748;SDS011;1382;52.142;11.618;2022-11-24T05:49:09;13.40;;;7.37;;
2748;SDS011;1382;52.142;11.618;2022-11-24T05:51:35;12.67;;;6.43;;
2748;SDS011;1382;52.142;11.618;2022-11-24T05:54:04;10.93;;;7.10;;
2748;SDS011;1382;52.142;11.618;2022-11-24T05:56:31;12.00;;;6.50;;
2748;SDS011;1382;52.142;11.618;2022-11-24T05:58:57;11.30;;;6.87;;
2748;SDS011;1382;52.142;11.618;2022-11-24T06:01:24;13.63;;;8.40;;
2748;SDS011;1382;52.142;11.618;2022-11-24T06:03:51;12.43;;;7.60;;
2748;SDS011;1382;52.142;11.618;2022-11-24T06:06:18;10.23;;;6.30;;
2748;SDS011;1382;52.142;11.618;2022-11-24T06:08:44;6.77;;;5.67;;
2748;SDS011;1382;52.142;11.618;2022-11-24T06:11:15;9.50;;;7.33;;
2748;SDS011;1382;52.142;11.618;2022-11-24T06:13:42;11.83;;;6.97;;
2748;SDS011;1382;52.142;11.618;2022-11-24T06:16:10;13.23;;;7.37;;
2748;SDS011;1382;52.142;11.618;2022-11-24T06:18:37;10.97;;;7.20;;
2748;SDS011;1382;52.142;11.618;2022-11-24T06:21:05;9.13;;;6.77;;
2748;SDS011;1382;52.142;11.618;2022-11-24T06:23:37;10.60;;;7.13;;
2748;SDS011;1382;52.142;11.618;2022-11-24T06:26:04;10.00;;;7.33;;
2748;SDS011;1382;52.142;11.618;2022-11-24T06:28:32;10.50;;;6.87;;
2748;SDS011;1382;52.142;11.618;2022-11-24T06:31:00;14.20;;;6.90;;
2748;SDS011;1382;52.142;11.618;2022-11-24T06:33:29;10.43;;;7.30;;
2748;SDS011;1382;52.142;11.618;2022-11-24T06:35:58;12.30;;;6.60;;
2748;SDS011;1382;52.142;11.618;2022-11-24T06:38:25;10.77;;;6.80;;
2748;SDS011;1382;52.142;11.618;2022-11-24T06:40:57;12.07;;;7.97;;
2748;SDS011;1382;52.142;11.618;2022-11-24T06:43:25;13.93;;;7.27;;
2748;SDS011;1382;52.142;11.618;2022-11-24T06:45:53;10.73;;;6.93;;
2748;SDS011;1382;52.142;11.618;2022-11-24T06:48:20;10.30;;;6.63;;
2748;SDS011;1382;52.142;11.618;2022-11-24T06:50:47;12.90;;;7.97;;
2748;SDS011;1382;52.142;11.618;2022-11-24T06:53:13;14.27;;;9.17;;
2748;SDS011;1382;52.142;11.618;2022-11-24T06:55:40;12.93;;;7.00;;
2748;SDS011;1382;52.142;11.618;2022-11-24T06:58:08;12.07;;;7.80;;
2748;SDS011;1382;52.142;11.618;2022-11-24T07:00:34;8.67;;;6.67;;
2748;SDS011;1382;52.142;11.618;2022-11-24T07:03:03;9.33;;;7.30;;
2748;SDS011;1382;52.142;11.618;2022-11-24T07:05:30;9.83;;;6.10;;
2748;SDS011;1382;52.142;11.618;2022-11-24T07:07:57;14.77;;;7.77;;
2748;SDS011;1382;52.142;11.618;2022-11-24T07:10:25;12.77;;;7.10;;
2748;SDS011;1382;52.142;11.618;2022-11-24T07:12:51;13.87;;;7.93;;
2748;SDS011;1382;52.142;11.618;2022-11-24T07:15:18;8.93;;;7.33;;
2748;SDS011;1382;52.142;11.618;2022-11-24T07:17:45;11.10;;;6.07;;
2748;SDS011;1382;52.142;11.618;2022-11-24T07:20:13;14.43;;;8.50;;
2748;SDS011;1382;52.142;11.618;2022-11-24T07:22:40;14.03;;;8.23;;
2748;SDS011;1382;52.142;11.618;2022-11-24T07:25:07;10.50;;;6.80;;
2748;SDS011;1382;52.142;11.618;2022-11-24T07:27:34;11.73;;;7.97;;
2748;SDS011;1382;52.142;11.618;2022-11-24T07:30:02;14.90;;;8.37;;
2748;SDS011;1382;52.142;11.618;2022-11-24T07:32:38;10.23;;;7.87;;
2748;SDS011;1382;52.142;11.618;2022-11-24T07:35:34;15.47;;;7.97;;
2748;SDS011;1382;52.142;11.618;2022-11-24T07:38:01;14.50;;;7.73;;
2748;SDS011;1382;52.142;11.618;2022-11-24T07:40:28;11.73;;;7.73;;
2748;SDS011;1382;52.142;11.618;2022-11-24T07:42:55;12.00;;;8.03;;
2748;SDS011;1382;52.142;11.618;2022-11-24T07:45:25;10.73;;;7.57;;
2748;SDS011;1382;52.142;11.618;2022-11-24T07:47:52;15.20;;;8.23;;
2748;SDS011;1382;52.142;11.618;2022-11-24T07:50:19;15.10;;;8.50;;
2748;SDS011;1382;52.142;11.618;2022-11-24T07:52:47;12.87;;;7.73;;
2748;SDS011;1382;52.142;11.618;2022-11-24T07:55:14;10.63;;;6.90;;
2748;SDS011;1382;52.142;11.618;2022-11-24T07:57:41;13.00;;;8.97;;
2748;SDS011;1382;52.142;11.618;2022-11-24T08:00:10;9.23;;;7.37;;
2748;SDS011;1382;52.142;11.618;2022-11-24T08:02:37;13.30;;;7.00;;
2748;SDS011;1382;52.142;11.618;2022-11-24T08:05:04;12.23;;;7.93;;
2748;SDS011;1382;52.142;11.618;2022-11-24T08:07:31;9.97;;;6.67;;
2748;SDS011;1382;52.142;11.618;2022-11-24T08:10:00;18.07;;;7.90;;
2748;SDS011;1382;52.142;11.618;2022-11-24T08:12:26;9.40;;;6.73;;
2748;SDS011;1382;52.142;11.618;2022-11-24T08:14:53;11.30;;;7.80;;
2748;SDS011;1382;52.142;11.618;2022-11-24T08:17:20;9.27;;;6.30;;
2748;SDS011;1382;52.142;11.618;2022-11-24T08:19:47;9.40;;;8.00;;
2748;SDS011;1382;52.142;11.618;2022-11-24T08:22:14;13.17;;;8.10;;
2748;SDS011;1382;52.142;11.618;2022-11-24T08:24:40;12.20;;;7.90;;
2748;SDS011;1382;52.142;11.618;2022-11-24T08:27:09;11.13;;;8.57;;
2748;SDS011;1382;52.142;11.618;2022-11-24T08:29:35;9.60;;;7.27;;
2748;SDS011;1382;52.142;11.618;2022-11-24T08:32:02;14.10;;;8.27;;
2748;SDS011;1382;52.142;11.618;2022-11-24T08:34:30;15.23;;;8.30;;
2748;SDS011;1382;52.142;11.618;2022-11-24T08:36:57;13.23;;;8.50;;
2748;SDS011;1382;52.142;11.618;2022-11-24T08:39:23;15.23;;;9.10;;
2748;SDS011;1382;52.142;11.618;2022-11-24T08:41:50;13.63;;;9.33;;
2748;SDS011;1382;52.142;11.618;2022-11-24T08:44:18;17.40;;;9.83;;
2748;SDS011;1382;52.142;11.618;2022-11-24T08:46:45;18.97;;;10.03;;
2748;SDS011;1382;52.142;11.618;2022-11-24T08:49:12;15.97;;;9.10;;
2748;SDS011;1382;52.142;11.618;2022-11-24T08:51:39;14.67;;;9.43;;
2748;SDS011;1382;52.142;11.618;2022-11-24T08:54:07;21.50;;;10.63;;
2748;SDS011;1382;52.142;11.618;2022-11-24T08:56:35;17.87;;;9.70;;
2748;SDS011;1382;52.142;11.618;2022-11-24T08:59:01;17.27;;;9.97;;
2748;SDS011;1382;52.142;11.618;2022-11-24T09:01:30;15.97;;;10.20;;
2748;SDS011;1382;52.142;11.618;2022-11-24T09:03:56;16.13;;;9.87;;
2748;SDS011;1382;52.142;11.618;2022-11-24T09:06:24;23.30;;;10.00;;
2748;SDS011;1382;52.142;11.618;2022-11-24T09:08:53;18.10;;;8.50;;
2748;SDS011;1382;52.142;11.618;2022-11-24T09:11:20;15.27;;;8.87;;
2748;SDS011;1382;52.142;11.618;2022-11-24T09:13:48;13.40;;;9.10;;
2748;SDS011;1382;52.142;11.618;2022-11-24T09:16:16;15.33;;;10.03;;
2748;SDS011;1382;52.142;11.618;2022-11-24T09:18:46;17.97;;;8.17;;
2748;SDS011;1382;52.142;11.618;2022-11-24T09:21:19;14.47;;;9.77;;
2748;SDS011;1382;52.142;11.618;2022-11-24T09:23:47;18.30;;;9.10;;
2748;SDS011;1382;52.142;11.618;2022-11-24T09:26:15;13.13;;;7.70;;
2748;SDS011;1382;52.142;11.618;2022-11-24T09:28:43;16.37;;;10.77;;
2748;SDS011;1382;52.142;11.618;2022-11-24T09:31:11;15.50;;;9.87;;
2748;SDS011;1382;52.142;11.618;2022-11-24T09:33:39;12.77;;;9.20;;
2748;SDS011;1382;52.142;11.618;2022-11-24T09:36:08;17.50;;;9.07;;
2748;SDS011;1382;52.142;11.618;2022-11-24T09:38:35;15.10;;;7.93;;
2748;SDS011;1382;52.142;11.618;2022-11-24T09:41:13;18.83;;;9.77;;
2748;SDS011;1382;52.142;11.618;2022-11-24T09:43:59;15.07;;;8.70;;
2748;SDS011;1382;52.142;11.618;2022-11-24T09:46:32;16.90;;;8.83;;
2748;SDS011;1382;52.142;11.618;2022-11-24T09:49:04;10.53;;;6.60;;
2748;SDS011;1382;52.142;11.618;2022-11-24T09:51:38;14.93;;;8.20;;
2748;SDS011;1382;52.142;11.618;2022-11-24T09:54:08;13.20;;;9.00;;
2748;SDS011;1382;52.142;11.618;2022-11-24T09:56:41;12.70;;;8.00;;
2748;SDS011;1382;52.142;11.618;2022-11-24T09:59:09;17.27;;;8.27;;
2748;SDS011;1382;52.142;11.618;2022-11-24T10:01:41;15.37;;;8.50;;
2748;SDS011;1382;52.142;11.618;2022-11-24T10:04:11;18.13;;;11.03;;
2748;SDS011;1382;52.142;11.618;2022-11-24T10:06:44;15.80;;;7.80;;
2748;SDS011;1382;52.142;11.618;2022-11-24T10:09:28;13.93;;;7.93;;
2748;SDS011;1382;52.142;11.618;2022-11-24T10:12:15;18.73;;;7.83;;
2748;SDS011;1382;52.142;11.618;2022-11-24T10:14:55;17.17;;;9.20;;
2748;SDS011;1382;52.142;11.618;2022-11-24T10:17:33;19.20;;;8.40;;
2748;SDS011;1382;52.142;11.618;2022-11-24T10:20:11;20.00;;;8.70;;
2748;SDS011;1382;52.142;11.618;2022-11-24T10:22:48;17.93;;;6.60;;
2748;SDS011;1382;52.142;11.618;2022-11-24T10:25:24;11.43;;;6.60;;
2748;SDS011;1382;52.142;11.618;2022-11-24T10:27:56;12.20;;;7.13;;
2748;SDS011;1382;52.142;11.618;2022-11-24T10:30:25;15.67;;;7.17;;
2748;SDS011;1382;52.142;11.618;2022-11-24T10:32:54;11.00;;;6.30;;
2748;SDS011;1382;52.142;11.618;2022-11-24T10:35:25;16.77;;;7.37;;
2748;SDS011;1382;52.142;11.618;2022-11-24T10:37:59;19.40;;;7.27;;
2748;SDS011;1382;52.142;11.618;2022-11-24T10:40:34;14.43;;;7.20;;
2748;SDS011;1382;52.142;11.618;2022-11-24T10:43:22;16.57;;;7.37;;
2748;SDS011;1382;52.142;11.618;2022-11-24T10:45:51;13.03;;;6.00;;
2748;SDS011;1382;52.142;11.618;2022-11-24T10:48:22;11.53;;;7.23;;
2748;SDS011;1382;52.142;11.618;2022-11-24T10:50:51;10.07;;;8.40;;
2748;SDS011;1382;52.142;11.618;2022-11-24T10:53:24;14.20;;;7.03;;
2748;SDS011;1382;52.142;11.618;2022-11-24T10:55:57;12.40;;;7.90;;
2748;SDS011;1382;52.142;11.618;2022-11-24T10:58:27;15.77;;;8.00;;
2748;SDS011;1382;52.142;11.618;2022-11-24T11:01:17;14.63;;;7.30;;
2748;SDS011;1382;52.142;11.618;2022-11-24T11:03:46;13.00;;;6.30;;
2748;SDS011;1382;52.142;11.618;2022-11-24T11:06:15;13.13;;;6.63;;
2748;SDS011;1382;52.142;11.618;2022-11-24T11:08:48;16.83;;;7.30;;
2748;SDS011;1382;52.142;11.618;2022-11-24T11:11:19;15.30;;;8.27;;
2748;SDS011;1382;52.142;11.618;2022-11-24T11:13:50;9.80;;;6.47;;
2748;SDS011;1382;52.142;11.618;2022-11-24T11:16:29;19.47;;;7.27;;
2748;SDS011;1382;52.142;11.618;2022-11-24T11:18:59;17.67;;;8.20;;
2748;SDS011;1382;52.142;11.618;2022-11-24T11:21:29;18.00;;;7.67;;
2748;SDS011;1382;52.142;11.618;2022-11-24T11:24:00;14.53;;;6.07;;
2748;SDS011;1382;52.142;11.618;2022-11-24T11:26:33;12.10;;;7.00;;
2748;SDS011;1382;52.142;11.618;2022-11-24T11:29:02;16.10;;;8.10;;
2748;SDS011;1382;52.142;11.618;2022-11-24T11:32:01;18.13;;;8.43;;
2748;SDS011;1382;52.142;11.618;2022-11-24T11:34:50;22.80;;;8.57;;
2748;SDS011;1382;52.142;11.618;2022-11-24T11:37:18;14.50;;;7.30;;
2748;SDS011;1382;52.142;11.618;2022-11-24T11:39:48;17.80;;;7.43;;
2748;SDS011;1382;52.142;11.618;2022-11-24T11:42:16;29.37;;;10.93;;
2748;SDS011;1382;52.142;11.618;2022-11-24T11:45:10;21.50;;;8.83;;
2748;SDS011;1382;52.142;11.618;2022-11-24T11:47:41;14.30;;;6.77;;
2748;SDS011;1382;52.142;11.618;2022-11-24T11:50:13;22.43;;;8.03;;
2748;SDS011;1382;52.142;11.618;2022-11-24T11:52:54;17.37;;;6.90;;
2748;SDS011;1382;52.142;11.618;2022-11-24T11:58:22;15.83;;;7.10;;
2748;SDS011;1382;52.142;11.618;2022-11-24T12:01:14;10.77;;;6.80;;
2748;SDS011;1382;52.142;11.618;2022-11-24T12:03:56;17.20;;;6.33;;
2748;SDS011;1382;52.142;11.618;2022-11-24T12:06:37;16.23;;;7.47;;
2748;SDS011;1382;52.142;11.618;2022-11-24T12:09:28;14.60;;;6.33;;
2748;SDS011;1382;52.142;11.618;2022-11-24T12:12:16;13.80;;;7.47;;
2748;SDS011;1382;52.142;11.618;2022-11-24T12:15:08;14.50;;;7.20;;
2748;SDS011;1382;52.142;11.618;2022-11-24T12:17:42;9.77;;;7.23;;
2748;SDS011;1382;52.142;11.618;2022-11-24T12:20:18;13.77;;;7.90;;
2748;SDS011;1382;52.142;11.618;2022-11-24T12:22:58;14.63;;;7.60;;
2748;SDS011;1382;52.142;11.618;2022-11-24T12:25:33;19.80;;;9.10;;
2748;SDS011;1382;52.142;11.618;2022-11-24T12:28:08;14.30;;;7.97;;
2748;SDS011;1382;52.142;11.618;2022-11-24T12:30:45;15.93;;;7.67;;
2748;SDS011;1382;52.142;11.618;2022-11-24T12:33:30;17.83;;;6.90;;
2748;SDS011;1382;52.142;11.618;2022-11-24T12:36:25;14.67;;;6.70;;
2748;SDS011;1382;52.142;11.618;2022-11-24T12:39:09;18.17;;;8.10;;
2748;SDS011;1382;52.142;11.618;2022-11-24T12:41:48;12.90;;;7.07;;
2748;SDS011;1382;52.142;11.618;2022-11-24T12:44:34;12.93;;;7.43;;
2748;SDS011;1382;52.142;11.618;2022-11-24T12:47:11;20.57;;;8.23;;
2748;SDS011;1382;52.142;11.618;2022-11-24T12:49:45;16.30;;;7.10;;
2748;SDS011;1382;52.142;11.618;2022-11-24T12:52:24;15.10;;;7.77;;
2748;SDS011;1382;52.142;11.618;2022-11-24T12:54:53;18.53;;;8.73;;
2748;SDS011;1382;52.142;11.618;2022-11-24T12:57:22;11.73;;;6.80;;
2748;SDS011;1382;52.142;11.618;2022-11-24T12:59:56;13.60;;;7.10;;
2748;SDS011;1382;52.142;11.618;2022-11-24T13:02:35;14.00;;;7.33;;
2748;SDS011;1382;52.142;11.618;2022-11-24T13:05:17;23.27;;;8.73;;
2748;SDS011;1382;52.142;11.618;2022-11-24T13:07:53;18.30;;;7.73;;
2748;SDS011;1382;52.142;11.618;2022-11-24T13:10:29;15.07;;;8.43;;
2748;SDS011;1382;52.142;11.618;2022-11-24T13:13:18;12.07;;;7.43;;
2748;SDS011;1382;52.142;11.618;2022-11-24T13:19:00;14.13;;;7.30;;
2748;SDS011;1382;52.142;11.618;2022-11-24T13:21:54;17.33;;;7.73;;
2748;SDS011;1382;52.142;11.618;2022-11-24T13:24:40;18.70;;;7.43;;
2748;SDS011;1382;52.142;11.618;2022-11-24T13:27:21;18.90;;;9.07;;
2748;SDS011;1382;52.142;11.618;2022-11-24T13:29:53;15.70;;;8.00;;
2748;SDS011;1382;52.142;11.618;2022-11-24T13:35:26;14.63;;;5.77;;
2748;SDS011;1382;52.142;11.618;2022-11-24T13:37:54;17.13;;;6.30;;
2748;SDS011;1382;52.142;11.618;2022-11-24T13:40:37;15.60;;;6.20;;
2748;SDS011;1382;52.142;11.618;2022-11-24T13:43:18;12.00;;;5.10;;
2748;SDS011;1382;52.142;11.618;2022-11-24T13:45:46;11.53;;;5.37;;
2748;SDS011;1382;52.142;11.618;2022-11-24T13:51:28;9.80;;;4.63;;
2748;SDS011;1382;52.142;11.618;2022-11-24T13:53:55;10.60;;;5.17;;
2748;SDS011;1382;52.142;11.618;2022-11-24T13:56:24;17.30;;;6.23;;
2748;SDS011;1382;52.142;11.618;2022-11-24T13:58:54;13.03;;;5.50;;
2748;SDS011;1382;52.142;11.618;2022-11-24T14:01:23;12.53;;;5.80;;
2748;SDS011;1382;52.142;11.618;2022-11-24T14:03:55;10.37;;;4.40;;
2748;SDS011;1382;52.142;11.618;2022-11-24T14:06:52;17.20;;;5.17;;
2748;SDS011;1382;52.142;11.618;2022-11-24T14:09:31;15.77;;;5.90;;
2748;SDS011;1382;52.142;11.618;2022-11-24T14:12:04;21.83;;;5.23;;
2748;SDS011;1382;52.142;11.618;2022-11-24T14:14:36;10.67;;;4.23;;
2748;SDS011;1382;52.142;11.618;2022-11-24T14:17:04;12.27;;;4.63;;
2748;SDS011;1382;52.142;11.618;2022-11-24T14:19:45;8.93;;;4.60;;
2748;SDS011;1382;52.142;11.618;2022-11-24T14:22:18;16.93;;;4.80;;
2748;SDS011;1382;52.142;11.618;2022-11-24T14:24:53;12.13;;;4.40;;
2748;SDS011;1382;52.142;11.618;2022-11-24T14:27:26;13.37;;;4.43;;
2748;SDS011;1382;52.142;11.618;2022-11-24T14:29:56;8.97;;;5.00;;
2748;SDS011;1382;52.142;11.618;2022-11-24T14:32:24;16.43;;;4.80;;
2748;SDS011;1382;52.142;11.618;2022-11-24T14:34:51;15.73;;;4.50;;
2748;SDS011;1382;52.142;11.618;2022-11-24T14:37:19;12.47;;;4.50;;
2748;SDS011;1382;52.142;11.618;2022-11-24T14:39:46;15.03;;;5.67;;
2748;SDS011;1382;52.142;11.618;2022-11-24T14:42:16;11.03;;;4.77;;
2748;SDS011;1382;52.142;11.618;2022-11-24T14:44:47;8.67;;;4.07;;
2748;SDS011;1382;52.142;11.618;2022-11-24T14:47:18;20.30;;;4.90;;
2748;SDS011;1382;52.142;11.618;2022-11-24T14:49:57;11.47;;;4.73;;
2748;SDS011;1382;52.142;11.618;2022-11-24T14:52:34;13.93;;;4.87;;
2748;SDS011;1382;52.142;11.618;2022-11-24T14:55:01;9.40;;;4.63;;
2748;SDS011;1382;52.142;11.618;2022-11-24T14:57:48;16.00;;;4.90;;
2748;SDS011;1382;52.142;11.618;2022-11-24T15:00:16;10.80;;;4.60;;
2748;SDS011;1382;52.142;11.618;2022-11-24T15:02:44;10.40;;;5.17;;
2748;SDS011;1382;52.142;11.618;2022-11-24T15:05:13;13.07;;;5.23;;
2748;SDS011;1382;52.142;11.618;2022-11-24T15:07:42;14.73;;;6.00;;
2748;SDS011;1382;52.142;11.618;2022-11-24T15:10:18;11.63;;;4.77;;
2748;SDS011;1382;52.142;11.618;2022-11-24T15:12:48;8.53;;;4.27;;
2748;SDS011;1382;52.142;11.618;2022-11-24T15:15:19;9.90;;;5.10;;
2748;SDS011;1382;52.142;11.618;2022-11-24T15:17:48;10.20;;;4.23;;
2748;SDS011;1382;52.142;11.618;2022-11-24T15:20:18;9.73;;;3.80;;
2748;SDS011;1382;52.142;11.618;2022-11-24T15:22:51;14.63;;;4.20;;